createdAt,value
2022-10-14T00:01:27.218Z,100676.88
2022-10-14T00:04:29.889Z,100678.84
2022-10-14T00:07:31.276Z,100680.72
2022-10-14T00:10:32.675Z,100679.28
2022-10-14T00:13:35.078Z,100678.47
2022-10-14T00:16:38.985Z,100673.59
2022-10-14T00:19:40.455Z,100678.31
2022-10-14T00:22:41.825Z,100673.25
2022-10-14T00:25:43.192Z,100676.97
2022-10-14T00:28:44.761Z,100683.19
2022-10-14T00:31:47.184Z,100677.84
2022-10-14T00:34:50.335Z,100684.44
2022-10-14T00:37:51.732Z,100685.31
2022-10-14T00:40:55.086Z,100687.16
2022-10-14T00:44:00.941Z,100681.84
2022-10-14T00:47:02.441Z,100680.75
2022-10-14T00:50:04.203Z,100672.91
2022-10-14T00:53:05.855Z,100676.25
2022-10-14T00:56:09.077Z,100678.00
2022-10-14T00:59:11.682Z,100677.13
2022-10-14T01:02:13.323Z,100672.69
2022-10-14T01:05:17.466Z,100678.13
2022-10-14T01:08:30.860Z,100676.53
2022-10-14T01:11:41.818Z,100675.69
2022-10-14T01:14:54.489Z,100670.38
2022-10-14T01:18:28.411Z,100666.00
2022-10-14T01:21:43.682Z,100662.56
2022-10-14T01:25:09.570Z,100666.00
2022-10-14T01:28:49.553Z,100668.66
2022-10-14T01:32:04.124Z,100664.19
2022-10-14T01:35:19.520Z,100659.81
2022-10-14T01:38:29.301Z,100660.78
2022-10-14T01:41:39.057Z,100659.97
2022-10-14T01:44:45.182Z,100657.47
2022-10-14T01:47:50.129Z,100650.50
2022-10-14T01:50:55.649Z,100656.72
2022-10-14T01:54:06.104Z,100655.53
2022-10-14T01:57:30.468Z,100659.06
2022-10-14T02:00:32.026Z,100650.16
2022-10-14T02:03:42.153Z,100646.56
2022-10-14T02:07:02.658Z,100651.03
2022-10-14T02:10:45.672Z,100645.91
2022-10-14T02:13:54.937Z,100636.25
2022-10-14T02:17:19.365Z,100635.94
2022-10-14T02:20:28.206Z,100622.84
2022-10-14T02:23:38.938Z,100622.78
2022-10-14T02:26:42.327Z,100613.16
2022-10-14T02:29:47.239Z,100618.47
2022-10-14T02:32:51.963Z,100606.00
2022-10-14T02:35:54.899Z,100604.28
2022-10-14T02:38:59.597Z,100601.63
2022-10-14T02:42:01.377Z,100598.97
2022-10-14T02:45:03.364Z,100589.44
2022-10-14T02:48:05.518Z,100586.78
2022-10-14T02:51:06.967Z,100580.63
2022-10-14T02:54:08.496Z,100580.56
2022-10-14T02:57:09.940Z,100584.03
2022-10-14T03:00:11.890Z,100575.91
2022-10-14T03:03:13.488Z,100575.78
2022-10-14T03:06:15.090Z,100568.63
2022-10-14T03:09:17.210Z,100568.63
2022-10-14T03:12:20.639Z,100565.13
2022-10-14T03:15:23.849Z,100567.72
2022-10-14T03:18:25.697Z,100564.19
2022-10-14T03:21:32.953Z,100556.22
2022-10-14T03:24:34.595Z,100549.28
2022-10-14T03:27:57.103Z,100548.34
2022-10-14T03:31:11.072Z,100542.19
2022-10-14T03:34:38.431Z,100549.22
2022-10-14T03:37:47.451Z,100535.94
2022-10-14T03:40:51.683Z,100538.75
2022-10-14T03:43:54.105Z,100543.19
2022-10-14T03:46:56.006Z,100539.75
2022-10-14T03:50:05.041Z,100541.75
2022-10-14T03:53:15.376Z,100525.97
2022-10-14T03:56:18.275Z,100532.00
2022-10-14T03:59:20.480Z,100525.78
2022-10-14T04:02:24.756Z,100526.66
2022-10-14T04:05:33.687Z,100524.91
2022-10-14T04:08:38.496Z,100530.06
2022-10-14T04:12:01.654Z,100520.53
2022-10-14T04:15:29.020Z,100524.00
2022-10-14T04:18:43.604Z,100521.19
2022-10-14T04:21:46.833Z,100517.66
2022-10-14T04:24:51.032Z,100512.34
2022-10-14T04:27:52.584Z,100514.16
2022-10-14T04:30:54.203Z,100512.41
2022-10-14T04:34:00.599Z,100515.22
2022-10-14T04:37:07.790Z,100515.22
2022-10-14T04:40:30.609Z,100510.16
2022-10-14T04:43:32.735Z,100502.28
2022-10-14T04:46:46.714Z,100498.00
2022-10-14T04:49:48.534Z,100495.44
2022-10-14T04:52:55.052Z,100492.78
2022-10-14T04:55:57.477Z,100484.13
2022-10-14T04:58:58.932Z,100487.53
2022-10-14T05:02:17.703Z,100482.31
2022-10-14T05:05:25.146Z,100473.41
2022-10-14T05:08:30.589Z,100467.34
2022-10-14T05:11:34.554Z,100457.50
2022-10-14T05:14:37.030Z,100457.59
2022-10-14T05:17:48.810Z,100450.41
2022-10-14T05:20:54.053Z,100457.44
2022-10-14T05:23:58.319Z,100454.84
2022-10-14T05:27:02.860Z,100446.91
2022-10-14T05:30:06.634Z,100444.25
2022-10-14T05:33:13.236Z,100448.69
2022-10-14T05:36:16.215Z,100453.16
2022-10-14T05:39:17.704Z,100455.00
2022-10-14T05:42:19.346Z,100453.00
2022-10-14T05:45:21.963Z,100444.25
2022-10-14T05:48:27.053Z,100443.47
2022-10-14T05:51:28.615Z,100452.38
2022-10-14T05:54:37.902Z,100441.69
2022-10-14T05:57:43.582Z,100447.84
2022-10-14T06:00:47.565Z,100444.25
2022-10-14T06:03:53.024Z,100444.25
2022-10-14T06:06:54.504Z,100442.38
2022-10-14T06:09:55.943Z,100440.53
2022-10-14T06:12:57.370Z,100453.88
2022-10-14T06:16:07.441Z,100450.19
2022-10-14T06:19:08.893Z,100456.19
2022-10-14T06:22:10.386Z,100457.75
2022-10-14T06:25:11.785Z,100444.31
2022-10-14T06:28:13.267Z,100443.97
2022-10-14T06:31:15.177Z,100448.91
2022-10-14T06:34:16.585Z,100444.34
2022-10-14T06:37:17.997Z,100445.22
2022-10-14T06:40:19.640Z,100435.34
2022-10-14T06:43:22.071Z,100447.72
2022-10-14T06:46:25.180Z,100444.84
2022-10-14T06:49:26.574Z,100440.53
2022-10-14T06:52:27.995Z,100449.53
2022-10-14T06:55:29.753Z,100439.84
2022-10-14T06:58:32.603Z,100440.78
2022-10-14T07:01:34.102Z,100447.81
2022-10-14T07:04:35.679Z,100447.00
2022-10-14T07:07:37.083Z,100439.06
2022-10-14T07:10:38.482Z,100444.06
2022-10-14T07:13:39.997Z,100439.59
2022-10-14T07:16:43.606Z,100442.25
2022-10-14T07:19:45.379Z,100440.09
2022-10-14T07:22:46.873Z,100438.94
2022-10-14T07:25:48.255Z,100434.47
2022-10-14T07:28:49.730Z,100439.63
2022-10-14T07:31:51.220Z,100438.53
2022-10-14T07:34:52.620Z,100440.19
2022-10-14T07:37:54.810Z,100436.41
2022-10-14T07:41:05.262Z,100441.34
2022-10-14T07:44:09.348Z,100431.72
2022-10-14T07:47:10.775Z,100430.66
2022-10-14T07:50:12.493Z,100436.59
2022-10-14T07:53:13.859Z,100439.94
2022-10-14T07:56:15.476Z,100444.13
2022-10-14T07:59:19.326Z,100442.19
2022-10-14T08:02:21.029Z,100441.88
2022-10-14T08:05:39.020Z,100437.25
2022-10-14T08:08:41.447Z,100435.47
2022-10-14T08:11:43.289Z,100437.19
2022-10-14T08:14:44.794Z,100430.06
2022-10-14T08:17:46.469Z,100431.88
2022-10-14T08:20:47.876Z,100435.47
2022-10-14T08:23:49.594Z,100431.41
2022-10-14T08:26:53.648Z,100434.00
2022-10-14T08:29:55.024Z,100437.31
2022-10-14T08:32:56.481Z,100429.47
2022-10-14T08:35:57.896Z,100424.28
2022-10-14T08:38:59.360Z,100429.34
2022-10-14T08:42:17.872Z,100425.69
2022-10-14T08:45:32.642Z,100428.50
2022-10-14T08:48:35.215Z,100424.84
2022-10-14T08:51:38.026Z,100422.97
2022-10-14T08:54:44.120Z,100420.47
2022-10-14T08:57:53.873Z,100425.19
2022-10-14T09:00:56.172Z,100421.59
2022-10-14T09:04:06.230Z,100416.03
2022-10-14T09:07:16.048Z,100410.28
2022-10-14T09:10:39.410Z,100406.78
2022-10-14T09:13:43.967Z,100405.59
2022-10-14T09:16:51.794Z,100408.91
2022-10-14T09:20:05.221Z,100400.78
2022-10-14T09:23:15.791Z,100393.44
2022-10-14T09:26:19.759Z,100400.34
2022-10-14T09:29:46.545Z,100403.53
2022-10-14T09:32:54.111Z,100399.09
2022-10-14T09:39:03.809Z,100396.53
2022-10-14T09:42:17.999Z,100394.63
2022-10-14T09:45:22.641Z,100384.69
2022-10-14T09:48:50.052Z,100384.50
2022-10-14T09:51:51.954Z,100383.06
2022-10-14T09:55:01.495Z,100375.94
2022-10-14T09:58:14.016Z,100371.13
2022-10-14T10:01:19.022Z,100362.72
2022-10-14T10:04:33.537Z,100364.06
2022-10-14T10:07:35.285Z,100363.88
2022-10-14T10:10:36.882Z,100368.19
2022-10-14T10:13:47.017Z,100360.78
2022-10-14T10:17:12.583Z,100365.38
2022-10-14T10:20:33.450Z,100357.88
2022-10-14T10:23:36.344Z,100345.19
2022-10-14T10:26:37.764Z,100340.22
2022-10-14T10:29:39.143Z,100343.72
2022-10-14T10:33:06.593Z,100339.34
2022-10-14T10:36:11.029Z,100331.78
2022-10-14T10:39:48.036Z,100322.66
2022-10-14T10:43:11.498Z,100324.72
2022-10-14T10:46:21.888Z,100327.47
2022-10-14T10:49:44.473Z,100316.81
2022-10-14T10:53:04.697Z,100317.84
2022-10-14T10:56:20.225Z,100321.44
2022-10-14T10:59:40.011Z,100313.38
2022-10-14T11:02:45.816Z,100313.25
2022-10-14T11:06:07.004Z,100311.66
2022-10-14T11:09:48.670Z,100306.50
2022-10-14T11:13:02.171Z,100307.72
2022-10-14T11:16:26.291Z,100301.38
2022-10-14T11:19:40.691Z,100302.88
2022-10-14T11:23:11.466Z,100298.31
2022-10-14T11:26:47.252Z,100300.22
2022-10-14T11:30:06.654Z,100303.81
2022-10-14T11:33:47.674Z,100293.94
2022-10-14T11:37:18.050Z,100290.53
2022-10-14T11:40:47.003Z,100287.16
2022-10-14T11:44:32.253Z,100282.03
2022-10-14T11:47:38.627Z,100278.53
2022-10-14T11:50:45.743Z,100257.25
2022-10-14T11:54:04.039Z,100259.69
2022-10-14T11:57:32.596Z,100257.66
2022-10-14T12:00:56.760Z,100255.19
2022-10-14T12:04:10.688Z,100247.78
2022-10-14T12:07:17.948Z,100241.00
2022-10-14T12:10:26.786Z,100231.13
2022-10-14T12:13:41.648Z,100233.00
2022-10-14T12:16:45.857Z,100227.31
2022-10-14T12:19:47.653Z,100220.75
2022-10-14T12:22:50.667Z,100231.69
2022-10-14T12:26:02.230Z,100230.25
2022-10-14T12:29:14.605Z,100223.31
2022-10-14T12:32:16.088Z,100228.47
2022-10-14T12:35:51.716Z,100215.31
2022-10-14T12:39:18.561Z,100210.94
2022-10-14T12:42:22.189Z,100210.84
2022-10-14T12:45:26.734Z,100212.75
2022-10-14T12:48:36.225Z,100203.34
2022-10-14T12:51:37.658Z,100213.34
2022-10-14T12:54:48.271Z,100215.44
2022-10-14T12:57:55.154Z,100207.81
2022-10-14T13:01:05.972Z,100209.81
2022-10-14T13:04:19.979Z,100203.53
2022-10-14T13:07:41.200Z,100213.53
2022-10-14T13:10:59.608Z,100214.00
2022-10-14T13:14:02.139Z,100204.88
2022-10-14T13:17:24.479Z,100209.69
2022-10-14T13:20:35.139Z,100214.00
2022-10-14T13:24:05.869Z,100206.38
2022-10-14T13:27:56.796Z,100197.63
2022-10-14T13:31:21.631Z,100200.84
2022-10-14T13:34:43.745Z,100195.34
2022-10-14T13:38:12.505Z,100198.00
2022-10-14T13:41:18.651Z,100194.63
2022-10-14T13:44:22.950Z,100185.28
2022-10-14T13:47:26.085Z,100184.16
2022-10-14T13:50:34.379Z,100181.88
2022-10-14T13:53:35.961Z,100169.50
2022-10-14T13:56:37.669Z,100171.03
2022-10-14T13:59:47.016Z,100173.03
2022-10-14T14:03:20.298Z,100173.03
2022-10-14T14:06:24.418Z,100167.13
2022-10-14T14:09:29.158Z,100156.78
2022-10-14T14:12:30.947Z,100164.84
2022-10-14T14:15:40.497Z,100153.47
2022-10-14T14:18:56.031Z,100164.19
2022-10-14T14:22:19.598Z,100164.97
2022-10-14T14:25:34.038Z,100149.72
2022-10-14T14:28:36.660Z,100148.50
2022-10-14T14:32:01.819Z,100156.38
2022-10-14T14:35:01.253Z,100156.69
2022-10-14T14:38:03.404Z,100151.66
2022-10-14T14:41:05.138Z,100157.91
2022-10-14T14:44:24.479Z,100151.81
2022-10-14T14:47:27.680Z,100152.84
2022-10-14T14:50:42.760Z,100159.78
2022-10-14T14:53:51.725Z,100164.91
2022-10-14T14:57:00.894Z,100160.44
2022-10-14T15:00:06.125Z,100149.03
2022-10-14T15:03:09.079Z,100146.88
2022-10-14T15:06:17.661Z,100129.28
2022-10-14T15:09:30.064Z,100128.78
2022-10-14T15:12:39.068Z,100126.91
2022-10-14T15:15:53.517Z,100107.25
2022-10-14T15:19:13.009Z,100118.53
2022-10-14T15:22:17.447Z,100125.28
2022-10-14T15:25:22.705Z,100111.13
2022-10-14T15:28:30.576Z,100112.28
2022-10-14T15:31:38.967Z,100126.53
2022-10-14T15:34:41.040Z,100122.34
2022-10-14T15:37:42.445Z,100115.03
2022-10-14T15:40:45.992Z,100117.78
2022-10-14T15:43:48.249Z,100107.81
2022-10-14T15:47:08.817Z,100103.72
2022-10-14T15:50:21.141Z,100113.41
2022-10-14T15:53:26.868Z,100113.19
2022-10-14T15:56:29.362Z,100104.09
2022-10-14T15:59:31.002Z,100092.91
2022-10-14T16:02:33.406Z,100092.34
2022-10-14T16:05:36.590Z,100102.75
2022-10-14T16:08:44.311Z,100082.63
2022-10-14T16:11:46.146Z,100078.44
2022-10-14T16:14:47.560Z,100079.59
2022-10-14T16:17:52.071Z,100074.34
2022-10-14T16:20:54.928Z,100077.88
2022-10-14T16:23:58.603Z,100080.06
2022-10-14T16:27:02.995Z,100074.34
2022-10-14T16:30:04.845Z,100078.72
2022-10-14T16:33:06.552Z,100081.47
2022-10-14T16:36:13.305Z,100083.84
2022-10-14T16:39:15.689Z,100079.22
2022-10-14T16:42:18.439Z,100089.09
2022-10-14T16:45:20.311Z,100085.56
2022-10-14T16:48:21.789Z,100074.06
2022-10-14T16:51:24.583Z,100072.38
2022-10-14T16:54:26.142Z,100080.16
2022-10-14T16:57:28.198Z,100067.16
2022-10-14T17:00:29.591Z,100070.28
2022-10-14T17:03:30.979Z,100070.09
2022-10-14T17:06:32.614Z,100072.56
2022-10-14T17:09:36.464Z,100083.88
2022-10-14T17:12:39.378Z,100074.81
2022-10-14T17:15:40.806Z,100071.22
2022-10-14T17:18:42.471Z,100078.25
2022-10-14T17:21:49.259Z,100070.28
2022-10-14T17:24:50.751Z,100077.69
2022-10-14T17:27:52.459Z,100071.81
2022-10-14T17:30:54.016Z,100058.69
2022-10-14T17:33:56.020Z,100070.47
2022-10-14T17:36:59.461Z,100060.78
2022-10-14T17:40:01.113Z,100057.94
2022-10-14T17:43:02.572Z,100059.84
2022-10-14T17:49:15.791Z,100054.69
2022-10-14T17:52:17.208Z,100053.00
2022-10-14T17:58:25.043Z,100046.84
2022-10-14T18:01:37.016Z,100040.81
2022-10-14T18:04:39.503Z,100048.81
2022-10-14T18:07:40.971Z,100046.16
2022-10-14T18:10:42.470Z,100043.41
2022-10-14T18:13:43.954Z,100048.81
2022-10-14T18:16:45.748Z,100042.53
2022-10-14T18:19:51.848Z,100039.97
2022-10-14T18:22:53.920Z,100038.94
2022-10-14T18:25:55.381Z,100037.78
2022-10-14T18:29:00.948Z,100034.41
2022-10-14T18:32:02.540Z,100038.94
2022-10-14T18:35:05.510Z,100035.41
2022-10-14T18:38:07.005Z,100037.13
2022-10-14T18:41:11.970Z,100032.69
2022-10-14T18:44:13.471Z,100028.69
2022-10-14T18:47:14.996Z,100032.50
2022-10-14T18:50:16.517Z,100026.41
2022-10-14T18:53:17.894Z,100019.38
2022-10-14T18:56:22.729Z,100023.19
2022-10-14T18:59:24.174Z,100017.28
2022-10-14T19:02:25.732Z,100011.97
2022-10-14T19:05:32.197Z,100008.38
2022-10-14T19:08:39.849Z,100001.81
2022-10-14T19:11:41.770Z,99999.91
2022-10-14T19:14:43.776Z,99994.59
2022-10-14T19:17:50.917Z,99999.47
2022-10-14T19:20:57.976Z,99988.22
2022-10-14T19:24:01.925Z,99991.47
2022-10-14T19:27:03.416Z,99992.31
2022-10-14T19:30:05.498Z,99982.72
2022-10-14T19:33:06.902Z,99974.00
2022-10-14T19:36:09.354Z,99974.19
2022-10-14T19:39:13.677Z,99968.28
2022-10-14T19:42:15.087Z,99971.91
2022-10-14T19:45:16.685Z,99967.53
2022-10-14T19:48:18.092Z,99962.41
2022-10-14T19:51:19.514Z,99946.66
2022-10-14T19:54:20.921Z,99949.78
2022-10-14T19:57:22.662Z,99946.19
2022-10-14T20:00:24.276Z,99941.91
2022-10-14T20:03:26.674Z,99934.88
2022-10-14T20:06:35.410Z,99931.28
2022-10-14T20:09:36.830Z,99933.28
2022-10-14T20:12:38.355Z,99928.06
2022-10-14T20:15:39.849Z,99922.91
2022-10-14T20:18:41.750Z,99915.13
2022-10-14T20:21:43.281Z,99923.84
2022-10-14T20:24:44.879Z,99921.19
2022-10-14T20:27:46.257Z,99915.03
2022-10-14T20:30:48.207Z,99916.16
2022-10-14T20:33:49.615Z,99910.00
2022-10-14T20:36:51.002Z,99904.84
2022-10-14T20:39:53.810Z,99904.94
2022-10-14T20:42:55.489Z,99905.91
2022-10-14T20:45:56.902Z,99907.88
2022-10-14T20:48:58.402Z,99906.16
2022-10-14T20:51:59.807Z,99899.91
2022-10-14T20:55:01.342Z,99897.09
2022-10-14T20:58:03.469Z,99897.25
2022-10-14T21:01:16.938Z,99890.25
2022-10-14T21:04:18.427Z,99890.25
2022-10-14T21:07:23.293Z,99883.25
2022-10-14T21:10:24.948Z,99879.44
2022-10-14T21:13:27.854Z,99872.41
2022-10-14T21:16:34.341Z,99867.09
2022-10-14T21:19:35.788Z,99869.00
2022-10-14T21:22:37.192Z,99860.28
2022-10-14T21:25:38.657Z,99856.69
2022-10-14T21:28:40.738Z,99858.56
2022-10-14T21:31:42.285Z,99853.25
2022-10-14T21:34:43.674Z,99849.66
2022-10-14T21:37:45.068Z,99840.94
2022-10-14T21:40:46.503Z,99844.34
2022-10-14T21:43:47.876Z,99840.06
2022-10-14T21:46:49.594Z,99831.25
2022-10-14T21:49:51.013Z,99835.44
2022-10-14T21:52:52.469Z,99835.53
2022-10-14T21:55:53.863Z,99819.50
2022-10-14T21:58:55.685Z,99826.72
2022-10-14T22:01:58.900Z,99823.00
2022-10-14T22:05:00.590Z,99819.50
2022-10-14T22:08:02.071Z,99823.84
2022-10-14T22:11:04.610Z,99814.19
2022-10-14T22:14:08.448Z,99809.91
2022-10-14T22:17:09.950Z,99807.34
2022-10-14T22:20:11.491Z,99803.09
2022-10-14T22:23:12.923Z,99790.47
2022-10-14T22:26:16.846Z,99785.94
2022-10-14T22:29:18.341Z,99786.88
2022-10-14T22:32:19.712Z,99783.28
2022-10-14T22:35:22.771Z,99785.16
2022-10-14T22:38:24.298Z,99775.69
2022-10-14T22:41:27.907Z,99765.94
2022-10-14T22:44:31.270Z,99771.25
2022-10-14T22:47:32.792Z,99777.59
2022-10-14T22:50:35.231Z,99775.69
2022-10-14T22:53:38.049Z,99763.38
2022-10-14T22:56:39.795Z,99765.72
2022-10-14T22:59:41.543Z,99759.56
2022-10-14T23:02:42.972Z,99755.09
2022-10-14T23:05:44.374Z,99756.81
2022-10-14T23:08:45.912Z,99758.53
2022-10-14T23:11:47.409Z,99762.78
2022-10-14T23:14:48.780Z,99761.09
2022-10-14T23:17:50.153Z,99750.34
2022-10-14T23:20:51.910Z,99755.78
2022-10-14T23:23:56.074Z,99751.28
2022-10-14T23:26:57.456Z,99746.84
2022-10-14T23:29:58.925Z,99747.69
2022-10-14T23:33:00.314Z,99752.16
2022-10-14T23:36:06.377Z,99748.56
2022-10-14T23:39:08.017Z,99742.38
2022-10-14T23:42:09.413Z,99745.72
2022-10-14T23:45:11.085Z,99739.63
2022-10-14T23:48:12.454Z,99740.59
2022-10-14T23:51:13.887Z,99734.16
2022-10-14T23:54:15.500Z,99736.81
2022-10-14T23:57:16.902Z,99735.84
